createdAt,value
2023-03-06T00:00:22.608Z,99397.66
2023-03-06T00:02:49.906Z,99417.59
2023-03-06T00:05:17.280Z,99409.91
2023-03-06T00:07:44.584Z,99409.44
2023-03-06T00:10:23.290Z,99414.59
2023-03-06T00:13:01.806Z,99407.25
2023-03-06T00:15:29.213Z,99404.78
2023-03-06T00:17:56.653Z,99409.03
2023-03-06T00:20:24.186Z,99411.69
2023-03-06T00:22:51.449Z,99409.50
2023-03-06T00:25:20.355Z,99411.22
2023-03-06T00:27:47.673Z,99407.38
2023-03-06T00:30:17.100Z,99395.66
2023-03-06T00:32:44.431Z,99397.38
2023-03-06T00:35:13.040Z,99393.09
2023-03-06T00:37:40.409Z,99386.41
2023-03-06T00:40:09.764Z,99380.88
2023-03-06T00:42:37.233Z,99376.66
2023-03-06T00:45:05.398Z,99392.41
2023-03-06T00:47:32.626Z,99389.19
2023-03-06T00:49:59.906Z,99379.06
2023-03-06T00:52:27.194Z,99382.88
2023-03-06T00:54:54.556Z,99390.09
2023-03-06T00:57:21.880Z,99371.06
2023-03-06T00:59:49.157Z,99384.97
2023-03-06T01:02:16.527Z,99377.00
2023-03-06T01:04:43.840Z,99382.22
2023-03-06T01:07:11.823Z,99382.72
2023-03-06T01:09:39.074Z,99384.81
2023-03-06T01:12:06.629Z,99380.34
2023-03-06T01:14:35.115Z,99380.34
2023-03-06T01:17:02.513Z,99379.28
2023-03-06T01:19:29.827Z,99368.97
2023-03-06T01:21:58.340Z,99370.97
2023-03-06T01:24:25.975Z,99377.47
2023-03-06T01:26:56.954Z,99372.47
2023-03-06T01:29:26.389Z,99362.13
2023-03-06T01:31:56.049Z,99366.56
2023-03-06T01:34:23.437Z,99361.56
2023-03-06T01:36:50.737Z,99360.47
2023-03-06T01:39:19.219Z,99356.06
2023-03-06T01:41:46.966Z,99354.47
2023-03-06T01:44:14.224Z,99367.56
2023-03-06T01:46:42.812Z,99368.38
2023-03-06T01:49:26.689Z,99367.28
2023-03-06T01:52:11.073Z,99365.88
2023-03-06T01:54:44.748Z,99328.59
2023-03-06T01:57:14.274Z,99363.94
2023-03-06T01:59:42.193Z,99369.25
2023-03-06T02:02:10.596Z,99360.78
2023-03-06T02:04:39.541Z,99361.38
2023-03-06T02:07:06.927Z,99372.41
2023-03-06T02:09:34.847Z,99362.47
2023-03-06T02:12:02.654Z,99371.13
2023-03-06T02:14:30.076Z,99359.81
2023-03-06T02:16:57.381Z,99372.59
2023-03-06T02:19:45.889Z,99367.69
2023-03-06T02:22:13.168Z,99362.66
2023-03-06T02:24:57.559Z,99372.59
2023-03-06T02:27:24.936Z,99366.97
2023-03-06T02:29:55.218Z,99368.84
2023-03-06T02:32:22.509Z,99367.88
2023-03-06T02:34:53.858Z,99367.69
2023-03-06T02:37:21.521Z,99371.78
2023-03-06T02:39:52.835Z,99361.38
2023-03-06T02:42:25.097Z,99332.25
2023-03-06T02:44:53.993Z,99367.66
2023-03-06T02:47:21.293Z,99364.91
2023-03-06T02:49:48.539Z,99354.06
2023-03-06T02:52:15.788Z,99350.16
2023-03-06T02:54:43.077Z,99349.56
2023-03-06T02:57:10.392Z,99337.94
2023-03-06T02:59:37.814Z,99351.91
2023-03-06T03:02:06.208Z,99361.94
2023-03-06T03:04:34.816Z,99355.25
2023-03-06T03:07:03.116Z,99357.13
2023-03-06T03:09:36.864Z,99349.16
2023-03-06T03:12:06.121Z,99358.00
2023-03-06T03:14:34.134Z,99351.28
2023-03-06T03:17:02.487Z,99349.50
2023-03-06T03:19:29.817Z,99350.81
2023-03-06T03:21:57.081Z,99348.91
2023-03-06T03:24:24.720Z,99346.31
2023-03-06T03:26:52.731Z,99344.16
2023-03-06T03:29:22.328Z,99352.81
2023-03-06T03:31:49.684Z,99339.22
2023-03-06T03:34:18.934Z,99343.34
2023-03-06T03:36:46.345Z,99347.47
2023-03-06T03:39:14.490Z,99340.53
2023-03-06T03:41:42.710Z,99343.72
2023-03-06T03:44:10.847Z,99339.47
2023-03-06T03:46:38.308Z,99329.81
2023-03-06T03:49:10.409Z,99327.13
2023-03-06T03:51:38.336Z,99329.81
2023-03-06T03:54:06.858Z,99308.59
2023-03-06T03:56:40.755Z,99312.06
2023-03-06T03:59:13.849Z,99298.75
2023-03-06T04:01:49.514Z,99300.63
2023-03-06T04:04:18.039Z,99308.16
2023-03-06T04:06:46.111Z,99293.38
2023-03-06T04:09:14.138Z,99305.78
2023-03-06T04:11:42.029Z,99300.53
2023-03-06T04:14:09.843Z,99323.75
2023-03-06T04:16:37.443Z,99319.72
2023-03-06T04:19:04.800Z,99308.63
2023-03-06T04:21:32.233Z,99308.97
2023-03-06T04:23:59.753Z,99312.38
2023-03-06T04:26:27.095Z,99313.81
2023-03-06T04:28:56.099Z,99321.00
2023-03-06T04:31:23.456Z,99323.47
2023-03-06T04:33:50.960Z,99337.94
2023-03-06T04:36:36.584Z,99324.00
2023-03-06T04:39:07.814Z,99328.13
2023-03-06T04:41:35.570Z,99326.03
2023-03-06T04:44:03.114Z,99317.41
2023-03-06T04:46:30.386Z,99307.53
2023-03-06T04:48:57.658Z,99306.91
2023-03-06T04:51:24.984Z,99312.69
2023-03-06T04:53:52.432Z,99318.16
2023-03-06T04:56:19.720Z,99322.56
2023-03-06T04:58:46.994Z,99323.81
2023-03-06T05:01:14.248Z,99322.09
2023-03-06T05:03:41.547Z,99322.06
2023-03-06T05:06:08.802Z,99325.53
2023-03-06T05:08:36.141Z,99321.47
2023-03-06T05:11:03.453Z,99318.78
2023-03-06T05:13:30.748Z,99325.34
2023-03-06T05:16:02.584Z,99307.44
2023-03-06T05:18:30.010Z,99331.75
2023-03-06T05:21:00.118Z,99324.06
2023-03-06T05:23:28.113Z,99320.03
2023-03-06T05:25:55.481Z,99326.00
2023-03-06T05:28:22.781Z,99326.28
2023-03-06T05:30:50.127Z,99326.69
2023-03-06T05:33:17.485Z,99327.34
2023-03-06T05:35:48.619Z,99323.63
2023-03-06T05:38:16.232Z,99332.72
2023-03-06T05:40:43.988Z,99336.19
2023-03-06T05:43:11.950Z,99344.06
2023-03-06T05:45:39.458Z,99346.88
2023-03-06T05:48:07.404Z,99345.31
2023-03-06T05:50:34.725Z,99337.78
2023-03-06T05:53:02.068Z,99347.06
2023-03-06T05:55:29.632Z,99354.97
2023-03-06T05:57:57.018Z,99338.97
2023-03-06T06:00:24.751Z,99354.78
2023-03-06T06:02:52.016Z,99361.88
2023-03-06T06:05:19.272Z,99360.19
2023-03-06T06:07:46.607Z,99364.09
2023-03-06T06:10:13.922Z,99356.56
2023-03-06T06:12:41.201Z,99374.63
2023-03-06T06:15:08.845Z,99356.56
2023-03-06T06:17:36.231Z,99366.78
2023-03-06T06:20:03.637Z,99358.59
2023-03-06T06:22:30.971Z,99366.38
2023-03-06T06:24:58.318Z,99353.78
2023-03-06T06:27:25.766Z,99363.66
2023-03-06T06:29:53.128Z,99368.25
2023-03-06T06:32:20.545Z,99381.59
2023-03-06T06:34:48.578Z,99369.03
2023-03-06T06:37:16.277Z,99376.72
2023-03-06T06:39:43.662Z,99378.94
2023-03-06T06:42:29.821Z,99380.81
2023-03-06T06:44:58.657Z,99375.81
2023-03-06T06:47:26.370Z,99379.56
2023-03-06T06:49:54.220Z,99371.25
2023-03-06T06:52:22.270Z,99384.34
2023-03-06T06:54:49.547Z,99373.00
2023-03-06T06:57:16.830Z,99382.75
2023-03-06T06:59:44.185Z,99377.25
2023-03-06T07:02:15.865Z,99364.34
2023-03-06T07:04:56.489Z,99378.50
2023-03-06T07:07:29.781Z,99381.34
2023-03-06T07:09:57.166Z,99388.41
2023-03-06T07:12:24.559Z,99389.84
2023-03-06T07:14:51.862Z,99393.75
2023-03-06T07:17:19.143Z,99376.94
2023-03-06T07:19:46.719Z,99385.75
2023-03-06T07:22:14.169Z,99392.19
2023-03-06T07:24:41.425Z,99398.75
2023-03-06T07:27:10.461Z,99381.63
2023-03-06T07:29:38.958Z,99390.13
2023-03-06T07:32:07.528Z,99387.59
2023-03-06T07:34:37.813Z,99400.50
2023-03-06T07:37:05.154Z,99402.72
2023-03-06T07:39:32.432Z,99405.22
2023-03-06T07:41:59.764Z,99402.72
2023-03-06T07:44:27.381Z,99395.94
2023-03-06T07:46:54.674Z,99403.28
2023-03-06T07:49:23.970Z,99412.41
2023-03-06T07:51:51.460Z,99415.66
2023-03-06T07:54:18.799Z,99407.22
2023-03-06T07:56:46.150Z,99407.00
2023-03-06T07:59:13.461Z,99419.94
2023-03-06T08:01:40.770Z,99418.78
2023-03-06T08:04:08.214Z,99413.75
2023-03-06T08:06:35.726Z,99411.00
2023-03-06T08:09:03.232Z,99427.31
2023-03-06T08:11:30.874Z,99414.16
2023-03-06T08:13:58.423Z,99409.78
2023-03-06T08:16:28.062Z,99413.81
2023-03-06T08:18:55.782Z,99436.84
2023-03-06T08:21:24.814Z,99419.97
2023-03-06T08:23:53.430Z,99440.28
2023-03-06T08:26:31.076Z,99430.50
2023-03-06T08:28:59.291Z,99416.16
2023-03-06T08:31:39.092Z,99441.75
2023-03-06T08:34:11.037Z,99440.25
2023-03-06T08:36:38.369Z,99442.31
2023-03-06T08:39:05.937Z,99444.22
2023-03-06T08:41:33.612Z,99439.94
2023-03-06T08:44:01.330Z,99429.16
2023-03-06T08:46:29.185Z,99440.88
2023-03-06T08:48:56.704Z,99427.09
2023-03-06T08:51:24.353Z,99444.97
2023-03-06T08:53:52.339Z,99435.50
2023-03-06T08:56:21.536Z,99422.94
2023-03-06T08:58:50.623Z,99440.63
2023-03-06T09:01:21.217Z,99451.44
2023-03-06T09:03:48.852Z,99434.22
2023-03-06T09:06:16.128Z,99438.94
2023-03-06T09:08:44.569Z,99452.41
2023-03-06T09:11:12.945Z,99435.88
2023-03-06T09:13:40.522Z,99440.59
2023-03-06T09:16:08.904Z,99450.66
2023-03-06T09:18:36.444Z,99445.94
2023-03-06T09:21:04.312Z,99455.88
2023-03-06T09:23:31.685Z,99434.22
2023-03-06T09:25:59.329Z,99444.16
2023-03-06T09:28:26.656Z,99447.41
2023-03-06T09:31:03.774Z,99438.31
2023-03-06T09:33:31.650Z,99446.19
2023-03-06T09:35:59.158Z,99448.41
2023-03-06T09:38:27.890Z,99440.94
2023-03-06T09:40:58.450Z,99447.34
2023-03-06T09:43:31.885Z,99451.91
2023-03-06T09:45:59.255Z,99439.88
2023-03-06T09:48:37.475Z,99444.44
2023-03-06T09:51:10.570Z,99449.06
2023-03-06T09:53:44.093Z,99432.81
2023-03-06T09:56:21.868Z,99448.09
2023-03-06T09:58:52.332Z,99423.50
2023-03-06T10:01:24.789Z,99427.63
2023-03-06T10:04:24.444Z,99455.28
2023-03-06T10:06:55.326Z,99442.69
2023-03-06T10:09:25.402Z,99444.88
2023-03-06T10:11:56.256Z,99419.84
2023-03-06T10:14:38.153Z,99436.66
2023-03-06T10:17:05.822Z,99459.63
2023-03-06T10:19:37.864Z,99451.31
2023-03-06T10:22:11.086Z,99452.88
2023-03-06T10:24:53.360Z,99455.13
2023-03-06T10:27:23.858Z,99406.06
2023-03-06T10:30:03.402Z,99453.03
2023-03-06T10:32:55.020Z,99448.16
2023-03-06T10:35:24.506Z,99438.69
2023-03-06T10:37:51.794Z,99448.78
2023-03-06T10:40:22.601Z,99438.75
2023-03-06T10:42:58.704Z,99435.72
2023-03-06T10:45:51.506Z,99418.03
2023-03-06T10:48:24.124Z,99433.41
2023-03-06T10:50:51.758Z,99435.19
2023-03-06T10:53:26.427Z,99420.56
2023-03-06T10:55:58.320Z,99437.06
2023-03-06T10:58:30.348Z,99432.78
2023-03-06T11:01:09.605Z,99397.81
2023-03-06T11:03:37.027Z,99433.63
2023-03-06T11:06:10.829Z,99439.63
2023-03-06T11:08:40.492Z,99430.22
2023-03-06T11:11:08.859Z,99439.63
2023-03-06T11:13:38.426Z,99435.84
2023-03-06T11:16:16.292Z,99427.31
2023-03-06T11:18:54.615Z,99422.19
2023-03-06T11:21:32.715Z,99424.56
2023-03-06T11:24:08.852Z,99377.88
2023-03-06T11:26:37.431Z,99415.72
2023-03-06T11:29:04.719Z,99427.53
2023-03-06T11:31:36.579Z,99419.53
2023-03-06T11:34:39.316Z,99413.44
2023-03-06T11:37:15.714Z,99399.91
2023-03-06T11:39:53.015Z,99349.00
2023-03-06T11:42:29.206Z,99403.19
2023-03-06T11:45:00.358Z,99410.06
2023-03-06T11:47:39.207Z,99406.75
2023-03-06T11:50:18.542Z,99405.16
2023-03-06T11:52:53.227Z,99400.00
2023-03-06T11:55:33.520Z,99396.41
2023-03-06T11:58:31.734Z,99417.78
2023-03-06T12:01:25.273Z,99402.84
2023-03-06T12:03:58.149Z,99396.06
2023-03-06T12:06:49.421Z,99395.44
2023-03-06T12:09:41.088Z,99394.50
2023-03-06T12:12:30.123Z,99392.00
2023-03-06T12:15:05.455Z,99380.59
2023-03-06T12:17:42.398Z,99376.06
2023-03-06T12:20:16.139Z,99379.97
2023-03-06T12:22:57.543Z,99375.25
2023-03-06T12:25:36.669Z,99373.75
2023-03-06T12:28:32.080Z,99365.16
2023-03-06T12:31:32.980Z,99368.13
2023-03-06T12:34:29.875Z,99369.19
2023-03-06T12:37:18.734Z,99363.44
2023-03-06T12:39:58.160Z,99354.03
2023-03-06T12:43:02.915Z,99360.38
2023-03-06T12:45:33.386Z,99353.84
2023-03-06T12:48:00.820Z,99353.00
2023-03-06T12:50:31.707Z,99343.03
2023-03-06T12:53:03.479Z,99291.44
2023-03-06T12:55:37.588Z,99329.78
2023-03-06T12:58:33.390Z,99331.59
2023-03-06T13:01:06.412Z,99336.06
2023-03-06T13:03:39.376Z,99334.63
2023-03-06T13:06:23.241Z,99325.75
2023-03-06T13:09:15.074Z,99332.13
2023-03-06T13:12:00.763Z,99328.72
2023-03-06T13:14:34.359Z,99327.91
2023-03-06T13:17:24.022Z,99319.91
2023-03-06T13:20:13.303Z,99321.91
2023-03-06T13:22:46.988Z,99321.63
2023-03-06T13:25:22.622Z,99309.63
2023-03-06T13:27:55.756Z,99312.25
2023-03-06T13:30:46.384Z,99309.94
2023-03-06T13:33:33.238Z,99303.63
2023-03-06T13:36:29.583Z,99301.22
2023-03-06T13:38:59.218Z,99298.44
2023-03-06T13:41:33.797Z,99298.22
2023-03-06T13:44:15.680Z,99302.63
2023-03-06T13:46:43.155Z,99294.63
2023-03-06T13:49:13.301Z,99296.72
2023-03-06T13:51:53.179Z,99284.31
2023-03-06T13:54:32.317Z,99281.94
2023-03-06T13:57:33.431Z,99283.16
2023-03-06T14:00:11.763Z,99282.59
2023-03-06T14:02:56.122Z,99288.22
2023-03-06T14:05:23.797Z,99267.06
2023-03-06T14:08:13.914Z,99272.06
2023-03-06T14:10:46.027Z,99280.25
2023-03-06T14:13:14.474Z,99272.47
2023-03-06T14:15:43.103Z,99264.28
2023-03-06T14:18:13.326Z,99278.69
2023-03-06T14:20:42.865Z,99259.53
2023-03-06T14:23:30.425Z,99252.44
2023-03-06T14:26:23.043Z,99276.50
2023-03-06T14:28:53.422Z,99276.13
2023-03-06T14:31:32.481Z,99275.53
2023-03-06T14:34:05.022Z,99247.50
2023-03-06T14:36:51.783Z,99255.16
2023-03-06T14:39:25.067Z,99270.31
2023-03-06T14:41:52.469Z,99259.25
2023-03-06T14:44:20.052Z,99266.31
2023-03-06T14:46:57.464Z,99252.69
2023-03-06T14:49:25.672Z,99258.03
2023-03-06T14:51:56.871Z,99258.19
2023-03-06T14:54:32.154Z,99264.03
2023-03-06T14:57:20.075Z,99263.22
2023-03-06T14:59:50.487Z,99266.16
2023-03-06T15:02:20.457Z,99242.78
2023-03-06T15:04:55.294Z,99235.41
2023-03-06T15:07:25.274Z,99254.59
2023-03-06T15:09:53.784Z,99254.16
2023-03-06T15:12:21.284Z,99256.31
2023-03-06T15:15:08.013Z,99245.47
2023-03-06T15:17:38.991Z,99251.56
2023-03-06T15:20:08.471Z,99245.66
2023-03-06T15:22:42.154Z,99238.56
2023-03-06T15:25:31.279Z,99224.34
2023-03-06T15:28:23.926Z,99225.19
2023-03-06T15:31:22.218Z,99231.94
2023-03-06T15:34:09.257Z,99237.13
2023-03-06T15:36:47.532Z,99214.72
2023-03-06T15:39:32.378Z,99213.94
2023-03-06T15:42:05.129Z,99227.28
2023-03-06T15:44:33.363Z,99212.53
2023-03-06T15:47:08.658Z,99218.81
2023-03-06T15:49:37.702Z,99210.22
2023-03-06T15:52:08.002Z,99207.03
2023-03-06T15:54:35.755Z,99203.91
2023-03-06T15:57:06.812Z,99206.09
2023-03-06T15:59:39.234Z,99215.38
2023-03-06T16:02:15.941Z,99209.53
2023-03-06T16:04:43.674Z,99204.88
2023-03-06T16:07:11.398Z,99200.94
2023-03-06T16:09:38.684Z,99188.56
2023-03-06T16:12:06.621Z,99199.25
2023-03-06T16:14:33.881Z,99202.75
2023-03-06T16:17:01.270Z,99204.16
2023-03-06T16:19:28.618Z,99202.56
2023-03-06T16:21:56.643Z,99183.44
2023-03-06T16:24:26.223Z,99188.44
2023-03-06T16:26:53.796Z,99188.00
2023-03-06T16:29:23.095Z,99183.28
2023-03-06T16:31:50.526Z,99185.31
2023-03-06T16:37:00.888Z,99180.78
2023-03-06T16:39:28.252Z,99176.25
2023-03-06T16:41:55.632Z,99184.69
2023-03-06T16:44:22.994Z,99194.59
2023-03-06T16:46:50.409Z,99168.25
2023-03-06T16:49:24.456Z,99172.91
2023-03-06T16:51:52.032Z,99164.78
2023-03-06T16:54:19.733Z,99180.94
2023-03-06T16:56:47.010Z,99171.03
2023-03-06T16:59:14.382Z,99190.34
2023-03-06T17:01:43.153Z,99173.38
2023-03-06T17:04:10.968Z,99182.03
2023-03-06T17:06:38.548Z,99173.38
2023-03-06T17:09:06.027Z,99191.91
2023-03-06T17:11:33.376Z,99185.31
2023-03-06T17:14:01.512Z,99191.09
2023-03-06T17:16:28.810Z,99195.66
2023-03-06T17:18:58.174Z,99173.03
2023-03-06T17:21:27.054Z,99169.16
2023-03-06T17:23:57.046Z,99176.22
2023-03-06T17:26:24.352Z,99177.47
2023-03-06T17:28:51.668Z,99175.28
2023-03-06T17:31:23.323Z,99178.06
2023-03-06T17:33:51.561Z,99169.31
2023-03-06T17:36:19.481Z,99188.75
2023-03-06T17:38:47.084Z,99183.91
2023-03-06T17:41:14.381Z,99187.81
2023-03-06T17:43:41.701Z,99172.47
2023-03-06T17:46:10.811Z,99174.97
2023-03-06T17:48:38.170Z,99190.22
2023-03-06T17:51:05.906Z,99185.66
2023-03-06T17:53:33.213Z,99182.22
2023-03-06T17:56:02.235Z,99177.34
2023-03-06T17:58:29.508Z,99178.13
2023-03-06T18:00:56.757Z,99188.47
2023-03-06T18:03:23.986Z,99186.75
2023-03-06T18:06:01.164Z,99186.13
2023-03-06T18:08:28.500Z,99191.31
2023-03-06T18:11:04.179Z,99204.50
2023-03-06T18:13:35.686Z,99198.84
2023-03-06T18:16:03.785Z,99195.25
2023-03-06T18:18:31.182Z,99197.09
2023-03-06T18:20:58.551Z,99183.47
2023-03-06T18:23:26.726Z,99198.69
2023-03-06T18:26:04.929Z,99184.22
2023-03-06T18:28:32.170Z,99189.72
2023-03-06T18:30:59.495Z,99193.63
2023-03-06T18:33:26.752Z,99193.63
2023-03-06T18:35:56.287Z,99193.31
2023-03-06T18:38:23.718Z,99196.63
2023-03-06T18:40:51.003Z,99202.44
2023-03-06T18:43:18.362Z,99203.22
2023-03-06T18:45:56.225Z,99199.13
2023-03-06T18:48:23.745Z,99183.56
2023-03-06T18:50:51.120Z,99195.06
2023-03-06T18:53:18.658Z,99167.88
2023-03-06T18:55:49.736Z,99171.78
2023-03-06T18:58:18.131Z,99177.00
2023-03-06T19:00:45.604Z,99188.78
2023-03-06T19:03:12.925Z,99175.59
2023-03-06T19:05:44.594Z,99171.50
2023-03-06T19:08:12.100Z,99173.53
2023-03-06T19:10:41.042Z,99174.03
2023-03-06T19:13:08.634Z,99175.28
2023-03-06T19:15:48.380Z,99155.66
2023-03-06T19:18:17.462Z,99156.41
2023-03-06T19:20:44.972Z,99158.78
2023-03-06T19:23:12.409Z,99153.72
2023-03-06T19:25:39.725Z,99150.59
2023-03-06T19:28:07.000Z,99150.72
2023-03-06T19:30:34.323Z,99154.91
2023-03-06T19:33:01.666Z,99168.56
2023-03-06T19:35:29.261Z,99154.97
2023-03-06T19:37:56.712Z,99167.34
2023-03-06T19:40:23.953Z,99158.25
2023-03-06T19:42:51.301Z,99153.25
2023-03-06T19:45:18.983Z,99152.63
2023-03-06T19:47:46.307Z,99144.47
2023-03-06T19:50:13.615Z,99160.81
2023-03-06T19:52:40.915Z,99161.13
2023-03-06T19:55:09.724Z,99159.38
2023-03-06T19:57:37.142Z,99161.69
2023-03-06T20:00:05.098Z,99161.53
2023-03-06T20:02:39.968Z,99158.16
2023-03-06T20:05:09.314Z,99159.66
2023-03-06T20:07:36.756Z,99154.84
2023-03-06T20:10:05.384Z,99158.16
2023-03-06T20:12:33.335Z,99149.19
2023-03-06T20:15:00.593Z,99159.41
2023-03-06T20:17:27.905Z,99150.69
2023-03-06T20:19:55.532Z,99155.06
2023-03-06T20:22:22.839Z,99146.66
2023-03-06T20:24:50.132Z,99152.47
2023-03-06T20:27:17.442Z,99132.75
2023-03-06T20:29:44.798Z,99149.66
2023-03-06T20:32:12.723Z,99132.34
2023-03-06T20:34:40.177Z,99146.47
2023-03-06T20:37:08.312Z,99144.13
2023-03-06T20:39:35.701Z,99136.91
2023-03-06T20:42:04.063Z,99146.13
2023-03-06T20:44:31.350Z,99135.00
2023-03-06T20:46:58.681Z,99141.94
2023-03-06T20:49:27.325Z,99132.81
2023-03-06T20:51:56.067Z,99141.75
2023-03-06T20:54:23.362Z,99131.88
2023-03-06T20:56:50.659Z,99148.31
2023-03-06T20:59:18.014Z,99145.50
2023-03-06T21:01:46.988Z,99131.84
2023-03-06T21:04:14.767Z,99136.38
2023-03-06T21:06:45.368Z,99139.91
2023-03-06T21:09:15.906Z,99141.94
2023-03-06T21:11:43.405Z,99125.25
2023-03-06T21:14:12.339Z,99132.78
2023-03-06T21:16:39.693Z,99122.56
2023-03-06T21:19:09.358Z,99136.66
2023-03-06T21:21:36.949Z,99136.94
2023-03-06T21:24:04.407Z,99137.34
2023-03-06T21:26:33.896Z,99126.81
2023-03-06T21:29:01.638Z,99136.03
2023-03-06T21:31:29.090Z,99130.72
2023-03-06T21:33:56.706Z,99139.97
2023-03-06T21:36:24.803Z,99137.06
2023-03-06T21:38:52.456Z,99146.31
2023-03-06T21:41:25.994Z,99140.50
2023-03-06T21:43:57.063Z,99145.56
2023-03-06T21:46:24.702Z,99143.03
2023-03-06T21:48:52.033Z,99139.84
2023-03-06T21:51:20.013Z,99125.44
2023-03-06T21:53:47.799Z,99119.19
2023-03-06T21:56:16.287Z,99100.63
2023-03-06T21:58:43.824Z,99127.13
2023-03-06T22:01:17.693Z,99131.88
2023-03-06T22:03:45.233Z,99125.69
2023-03-06T22:06:17.250Z,99136.72
2023-03-06T22:08:44.596Z,99134.09
2023-03-06T22:11:13.643Z,99119.13
2023-03-06T22:13:41.176Z,99146.25
2023-03-06T22:16:08.698Z,99141.91
2023-03-06T22:18:36.061Z,99132.47
2023-03-06T22:21:10.564Z,99117.03
2023-03-06T22:23:38.147Z,99116.28
2023-03-06T22:26:06.328Z,99134.09
2023-03-06T22:28:33.698Z,99141.56
2023-03-06T22:31:15.086Z,99121.72
2023-03-06T22:33:42.522Z,99145.59
2023-03-06T22:36:11.650Z,99135.75
2023-03-06T22:38:40.253Z,99127.81
2023-03-06T22:41:07.866Z,99129.97
2023-03-06T22:43:35.161Z,99134.19
2023-03-06T22:46:07.428Z,99123.97
2023-03-06T22:48:34.723Z,99123.66
2023-03-06T22:51:09.426Z,99122.88
2023-03-06T22:53:36.907Z,99128.19
2023-03-06T22:56:08.007Z,99132.00
2023-03-06T22:58:37.184Z,99130.38
2023-03-06T23:01:15.385Z,99137.03
2023-03-06T23:03:44.301Z,99132.53
2023-03-06T23:06:15.189Z,99142.25
2023-03-06T23:08:42.493Z,99136.75
2023-03-06T23:11:11.232Z,99139.59
2023-03-06T23:13:57.336Z,99132.22
2023-03-06T23:16:43.316Z,99142.84
2023-03-06T23:19:29.167Z,99125.56
2023-03-06T23:22:15.071Z,99126.75
2023-03-06T23:25:00.798Z,99127.84
2023-03-06T23:27:29.504Z,99123.28
2023-03-06T23:29:58.990Z,99117.41
2023-03-06T23:32:26.427Z,99127.03
2023-03-06T23:34:53.785Z,99117.00
2023-03-06T23:37:21.126Z,99139.00
2023-03-06T23:39:48.507Z,99126.63
2023-03-06T23:42:15.806Z,99126.63
2023-03-06T23:44:43.233Z,99119.53
2023-03-06T23:47:10.515Z,99129.56
2023-03-06T23:49:37.859Z,99124.19
2023-03-06T23:52:05.299Z,99110.09
2023-03-06T23:54:34.401Z,99112.28
2023-03-06T23:57:01.734Z,99114.94
2023-03-06T23:59:29.049Z,99134.13
